• Join FlightAware (Why Join?)
  • Login
  • US Flag 
04:00PM EDT


 

Airport Tracker/Info


-or-


 

Live Flight TrackerFlight Track Log ✈ EJA829P ✈ 19-Jul-2013 ✈ KPDK - KPWK

Flight Track Log - Related Links

Times and Time Zones

All times are in EDT time to prevent confusion due to time zone crossing. See the EJA829P flight status page for this flight to view local times or setup timezone preferences in your user account.

Time Position Orientation Groundspeed Altitude Reporting Facility
EDT Latitude Longitude Course Direction KTS MPH feet Rate Location/Type
08:58AM 33.9333 -84.2667 North 218 251 3,200  Level Atlanta TRACON
08:59AM 34.0486 -84.2544 North 233 268 8,500 2,760 Climbing Atlanta Center
09:00AM 34.1239 -84.2647 354° North 253 291 11,100 2,340 Climbing Atlanta Center
09:01AM 34.2136 -84.2775 353° North 295 339 13,200 2,220 Climbing Atlanta Center
09:02AM 34.3094 -84.2853 356° North 333 383 15,600 2,340 Climbing Atlanta Center
09:03AM 34.4712 -84.3000 North  Level FlightAware Approximate
09:03AM 34.4033 -84.2906 357° North 345 397 17,900  Level Atlanta Center
09:04AM 34.4994 -84.2908 360° North 345 397 20,000 2,160 Climbing Atlanta Center
09:05AM 34.5914 -84.2911 360° North 339 390 22,300 2,280 Climbing Atlanta Center
09:06AM 34.6853 -84.3039 354° North 339 390 24,600 2,100 Climbing Atlanta Center
09:07AM 34.7769 -84.3372 343° North 334 384 26,600 1,980 Climbing Atlanta Center
09:08AM 34.8708 -84.3553 351° North 339 390 28,600 1,980 Climbing Atlanta Center
09:09AM 34.9606 -84.3758 349° North 339 390 30,600 1,740 Climbing Atlanta Center
09:10AM 35.0564 -84.3864 355° North 332 382 32,100 1,320 Climbing Atlanta Center
09:11AM 35.1544 -84.3994 354° North 338 389 33,300 1,080 Climbing Atlanta Center
09:12AM 35.2608 -84.4128 354° North 364 419 34,300 840 Climbing Atlanta Center
09:13AM 35.3692 -84.4233 355° North 380 437 35,000 660 Climbing Atlanta Center
09:14AM 35.4800 -84.4161 North 385 443 35,700 900 Climbing Atlanta Center
09:15AM 35.5925 -84.4142 North 390 449 36,900 780 Climbing Atlanta Center
09:17AM 35.7883 -84.4064 North 395 455 38,000 360 Climbing Indianapolis Center
09:18AM 35.9006 -84.4033 North 404 465 38,000  Level Indianapolis Center
09:19AM 36.0142 -84.3992 North 410 472 38,000  Level Indianapolis Center
09:20AM 36.1278 -84.3953 North 411 473 38,000  Level Indianapolis Center
09:21AM 36.2375 -84.3928 North 398 458 38,000  Level Indianapolis Center
09:22AM 36.3675 -84.3878 North 391 450 38,000  Level Indianapolis Center
09:23AM 36.4739 -84.3850 North 384 442 38,000 60 Level Indianapolis Center
09:24AM 36.5656 -84.4197 343° North 374 430 38,200 480 Climbing Indianapolis Center
09:25AM 36.6628 -84.4797 334° Northwest 385 443 39,000 360 Climbing Indianapolis Center
09:26AM 36.7669 -84.5450 333° Northwest 390 449 39,000  Level Indianapolis Center
09:27AM 36.8631 -84.6053 333° Northwest 389 448 39,000  Level Indianapolis Center
09:28AM 36.9781 -84.6767 334° Northwest 384 442 39,000  Level Indianapolis Center
09:29AM 37.0656 -84.7325 333° Northwest 384 442 39,000  Level Indianapolis Center
09:31AM 37.1606 -84.7933 333° Northwest 382 440 39,000  Level Indianapolis Center
09:32AM 37.2714 -84.8631 333° Northwest 380 437 39,000  Level Indianapolis Center
09:33AM 37.3644 -84.9219 333° Northwest 376 433 39,000  Level Indianapolis Center
09:34AM 37.4592 -84.9828 333° Northwest 379 436 39,000  Level Indianapolis Center
09:35AM 37.5522 -85.0433 333° Northwest 377 434 39,000  Level Indianapolis Center
09:36AM 37.6453 -85.1039 333° Northwest 376 433 39,000  Level Indianapolis Center
09:37AM 37.7392 -85.1639 333° Northwest 375 432 39,000  Level Indianapolis Center
09:38AM 37.8369 -85.2283 333° Northwest 377 434 39,000  Level Indianapolis Center
09:39AM 37.9322 -85.2878 334° Northwest 379 436 39,000 -120 Level Indianapolis Center
09:40AM 38.0244 -85.3486 333° Northwest 376 433 38,800 -780 Descending Indianapolis Center
09:41AM 38.1414 -85.4264 332° Northwest 392 451 37,500 -900 Descending Indianapolis Center
09:42AM 38.2422 -85.4919 333° Northwest 403 464 37,000 -960 Descending Indianapolis Center
09:43AM 38.3431 -85.5581 333° Northwest 406 467 35,600 -1,500 Descending Indianapolis Center
09:44AM 38.4483 -85.6272 333° Northwest 419 482 34,000 -1,560 Descending Indianapolis Center
09:45AM 38.5519 -85.6958 333° Northwest 421 484 32,400 -1,440 Descending Indianapolis Center
09:46AM 38.6539 -85.7628 333° Northwest 419 482 31,100 -1,200 Descending Indianapolis Center
09:47AM 38.7811 -85.8472 333° Northwest 431 496 30,000 -540 Descending Indianapolis Center
09:48AM 38.8858 -85.9192 332° Northwest 420 483 30,000  Level Indianapolis Center
09:49AM 38.9897 -85.9872 333° Northwest 428 493 30,000 -300 Level Indianapolis Center
09:50AM 39.0958 -86.0606 332° Northwest 432 497 29,500 -1,020 Descending Indianapolis Center
09:51AM 39.2078 -86.1353 333° Northwest 448 516 28,000 -780 Descending Indianapolis Center
09:52AM 39.3156 -86.2092 332° Northwest 442 509 28,000  Level Indianapolis Center
09:53AM 39.4436 -86.2961 332° Northwest 433 498 28,000  Level Indianapolis Center
09:54AM 39.5500 -86.3697 332° Northwest 431 496 28,000  Level Indianapolis Center
09:55AM 39.6581 -86.4453 332° Northwest 433 498 28,000 -600 Level Indianapolis Center
09:56AM 39.7689 -86.5211 332° Northwest 437 503 26,800 -1,020 Descending Indianapolis Center
09:57AM 39.8775 -86.5947 333° Northwest 437 503 26,000 -660 Descending Indianapolis Center
09:58AM 39.9811 -86.6664 332° Northwest 425 489 25,500 -1,020 Descending Indianapolis Center
09:59AM 40.0817 -86.7356 332° Northwest 414 476 24,000 -960 Descending Indianapolis Center
10:00AM 40.1419 -86.7783 332° Northwest 407 468 24,000  Level Chicago Center
10:01AM 40.2428 -86.8489 332° Northwest 409 471 24,000  Level Chicago Center
10:02AM 40.3322 -86.9394 322° Northwest 406 467 24,000 -780 Level Chicago Center
10:03AM 40.4119 -87.0397 316° Northwest 399 459 22,500 -1,260 Descending Chicago Center
10:04AM 40.5064 -87.1494 319° Northwest 387 445 21,400 -1,500 Descending Chicago Center
10:05AM 40.5847 -87.2417 318° Northwest 376 433 19,500 -1,800 Descending Chicago Center
10:06AM 40.6861 -87.2781 345° North 374 430 17,800 -1,860 Descending Chicago Center
10:07AM 40.7864 -87.3044 349° North 369 425 15,700 -2,400 Descending Chicago Center
10:08AM 40.9008 -87.3353 348° North 354 407 12,900 -2,400 Descending Chicago Center
10:09AM 40.9928 -87.3597 349° North 345 397 10,800 -1,860 Descending Chicago Center
10:10AM 41.0764 -87.3817 349° North 322 371 9,100 -1,680 Descending Chicago Center
10:11AM 41.1547 -87.4017 349° North 296 341 7,400 -1,800 Descending Chicago Center
10:12AM 41.2411 -87.4172 352° North 276 318 5,500 -1,680 Descending Chicago Center
10:13AM 41.3139 -87.3878 17° North 278 320 4,000 -780 Descending Chicago Center
10:15AM 41.3850 -87.3553 19° North 275 316 4,000  Level Chicago Center
10:16AM 41.4589 -87.3228 18° North 278 320 4,000  Level Chicago Center
10:17AM 41.5333 -87.3383 351° North 277 319 4,000  Level Chicago Center
10:18AM 41.6208 -87.3550 352° North 268 308 4,000 -120 Level Chicago Center
10:19AM 41.6950 -87.3675 353° North 270 311 3,800 -540 Descending Chicago Center
10:20AM 41.7653 -87.3800 352° North 266 306 3,000 -420 Descending Chicago Center
10:21AM 41.8267 -87.3889 354° North 249 287 3,000  Level Chicago Center
10:22AM 41.8861 -87.3953 355° North 232 267 3,000  Level Chicago Center
10:23AM 41.9586 -87.4022 356° North 224 258 3,000  Level Chicago Center
10:24AM 42.0058 -87.4378 331° Northwest 210 242 3,000  Level Chicago Center
10:25AM 42.0508 -87.4817 324° Northwest 204 235 3,000  Level Chicago Center
10:26AM 42.0961 -87.5261 324° Northwest 203 234 3,000  Level Chicago Center
10:27AM 42.1417 -87.5828 317° Northwest 201 231 3,000  Level Chicago Center
10:28AM 42.1686 -87.6389 303° West 189 217 3,000  Level Chicago Center
10:29AM 42.1978 -87.7008 302° West 189 217 3,000 -360 Level Chicago Center
10:30AM 42.2267 -87.7622 302° West 192 221 2,300 -300 Descending Chicago Center
10:31AM 42.2556 -87.8186 305° West 190 219 2,400  Climbing Chicago Center
10:32AM 42.2636 -87.8917 278° West 195 224 2,400 -60 Level Chicago Center
10:33AM 42.2258 -87.9342 220° Southwest 185 213 2,300 -240 Descending Chicago Center
10:34AM 42.1867 -87.9414 188° South 179 206 2,000 -360 Descending Chicago Center
10:35AM 42.1464 -87.9256 164° South 179 206 1,600 -420 Descending Chicago Center